sensor_id;sensor_type;location;lat;lon;timestamp;P1;durP1;ratioP1;P2;durP2;ratioP2
77248;SDS011;66280;45.124;20.718;2023-01-15T00:01:28;87.67;;;37.63;;
77248;SDS011;66280;45.124;20.718;2023-01-15T00:11:30;96.00;;;41.13;;
77248;SDS011;66280;45.124;20.718;2023-01-15T00:21:31;79.90;;;35.88;;
77248;SDS011;66280;45.124;20.718;2023-01-15T00:31:32;72.07;;;28.80;;
77248;SDS011;66280;45.124;20.718;2023-01-15T00:41:34;86.43;;;32.03;;
77248;SDS011;66280;45.124;20.718;2023-01-15T00:51:35;61.58;;;24.42;;
77248;SDS011;66280;45.124;20.718;2023-01-15T01:01:36;69.95;;;29.73;;
77248;SDS011;66280;45.124;20.718;2023-01-15T01:11:37;79.37;;;31.00;;
77248;SDS011;66280;45.124;20.718;2023-01-15T01:21:38;58.63;;;25.30;;
77248;SDS011;66280;45.124;20.718;2023-01-15T01:31:39;66.93;;;27.83;;
77248;SDS011;66280;45.124;20.718;2023-01-15T01:41:40;65.03;;;26.73;;
77248;SDS011;66280;45.124;20.718;2023-01-15T01:51:46;58.53;;;26.53;;
77248;SDS011;66280;45.124;20.718;2023-01-15T02:02:08;78.43;;;30.98;;
77248;SDS011;66280;45.124;20.718;2023-01-15T02:12:42;47.20;;;18.48;;
77248;SDS011;66280;45.124;20.718;2023-01-15T02:33:12;50.87;;;20.53;;
77248;SDS011;66280;45.124;20.718;2023-01-15T02:43:15;53.15;;;23.30;;
77248;SDS011;66280;45.124;20.718;2023-01-15T02:53:19;52.07;;;20.80;;
77248;SDS011;66280;45.124;20.718;2023-01-15T03:03:37;48.77;;;20.17;;
77248;SDS011;66280;45.124;20.718;2023-01-15T03:23:50;50.63;;;19.83;;
77248;SDS011;66280;45.124;20.718;2023-01-15T03:33:56;67.72;;;25.63;;
77248;SDS011;66280;45.124;20.718;2023-01-15T03:54:05;72.40;;;29.07;;
77248;SDS011;66280;45.124;20.718;2023-01-15T04:04:09;79.17;;;33.87;;
77248;SDS011;66280;45.124;20.718;2023-01-15T04:14:11;94.13;;;26.73;;
77248;SDS011;66280;45.124;20.718;2023-01-15T04:24:20;66.95;;;20.65;;
77248;SDS011;66280;45.124;20.718;2023-01-15T04:34:20;88.70;;;27.95;;
77248;SDS011;66280;45.124;20.718;2023-01-15T04:44:21;190.60;;;40.33;;
77248;SDS011;66280;45.124;20.718;2023-01-15T04:54:22;108.03;;;27.07;;
77248;SDS011;66280;45.124;20.718;2023-01-15T05:04:22;118.43;;;30.43;;
77248;SDS011;66280;45.124;20.718;2023-01-15T05:14:23;88.37;;;22.90;;
77248;SDS011;66280;45.124;20.718;2023-01-15T05:24:24;138.98;;;33.75;;
77248;SDS011;66280;45.124;20.718;2023-01-15T05:34:24;125.57;;;30.63;;
77248;SDS011;66280;45.124;20.718;2023-01-15T05:44:26;129.60;;;33.20;;
77248;SDS011;66280;45.124;20.718;2023-01-15T05:54:28;119.40;;;34.23;;
77248;SDS011;66280;45.124;20.718;2023-01-15T06:04:31;83.20;;;24.08;;
77248;SDS011;66280;45.124;20.718;2023-01-15T06:14:31;142.13;;;32.57;;
77248;SDS011;66280;45.124;20.718;2023-01-15T06:24:32;69.80;;;21.53;;
77248;SDS011;66280;45.124;20.718;2023-01-15T06:34:33;87.57;;;24.35;;
77248;SDS011;66280;45.124;20.718;2023-01-15T06:44:33;123.67;;;30.43;;
77248;SDS011;66280;45.124;20.718;2023-01-15T06:54:34;77.70;;;23.43;;
77248;SDS011;66280;45.124;20.718;2023-01-15T07:04:35;146.60;;;36.03;;
77248;SDS011;66280;45.124;20.718;2023-01-15T07:14:37;87.03;;;26.87;;
77248;SDS011;66280;45.124;20.718;2023-01-15T07:24:37;77.17;;;26.27;;
77248;SDS011;66280;45.124;20.718;2023-01-15T07:34:38;53.17;;;19.77;;
77248;SDS011;66280;45.124;20.718;2023-01-15T07:44:39;66.33;;;24.23;;
77248;SDS011;66280;45.124;20.718;2023-01-15T07:54:39;60.60;;;22.07;;
77248;SDS011;66280;45.124;20.718;2023-01-15T08:04:40;87.90;;;28.93;;
77248;SDS011;66280;45.124;20.718;2023-01-15T08:14:41;44.97;;;16.27;;
77248;SDS011;66280;45.124;20.718;2023-01-15T08:24:41;75.97;;;29.10;;
77248;SDS011;66280;45.124;20.718;2023-01-15T08:34:42;93.17;;;31.87;;
77248;SDS011;66280;45.124;20.718;2023-01-15T08:44:43;54.73;;;20.50;;
77248;SDS011;66280;45.124;20.718;2023-01-15T08:54:43;52.93;;;22.37;;
77248;SDS011;66280;45.124;20.718;2023-01-15T09:04:44;51.37;;;26.60;;
77248;SDS011;66280;45.124;20.718;2023-01-15T09:14:45;53.77;;;26.63;;
77248;SDS011;66280;45.124;20.718;2023-01-15T09:24:45;68.55;;;33.08;;
77248;SDS011;66280;45.124;20.718;2023-01-15T09:34:46;61.83;;;29.13;;
77248;SDS011;66280;45.124;20.718;2023-01-15T10:05:17;32.53;;;17.57;;
77248;SDS011;66280;45.124;20.718;2023-01-15T10:15:43;34.90;;;18.60;;
77248;SDS011;66280;45.124;20.718;2023-01-15T10:25:49;24.83;;;14.60;;
77248;SDS011;66280;45.124;20.718;2023-01-15T10:36:02;26.60;;;17.17;;
77248;SDS011;66280;45.124;20.718;2023-01-15T10:46:26;19.80;;;12.53;;
77248;SDS011;66280;45.124;20.718;2023-01-15T10:56:32;22.40;;;13.17;;
77248;SDS011;66280;45.124;20.718;2023-01-15T11:06:37;23.88;;;14.50;;
77248;SDS011;66280;45.124;20.718;2023-01-15T11:16:37;21.50;;;13.27;;
77248;SDS011;66280;45.124;20.718;2023-01-15T11:26:40;17.57;;;11.53;;
77248;SDS011;66280;45.124;20.718;2023-01-15T11:36:40;26.70;;;15.33;;
77248;SDS011;66280;45.124;20.718;2023-01-15T11:46:41;15.02;;;9.32;;
77248;SDS011;66280;45.124;20.718;2023-01-15T11:56:45;19.57;;;11.07;;
77248;SDS011;66280;45.124;20.718;2023-01-15T12:06:46;13.57;;;9.60;;
77248;SDS011;66280;45.124;20.718;2023-01-15T12:16:47;19.60;;;11.43;;
77248;SDS011;66280;45.124;20.718;2023-01-15T12:27:00;16.27;;;8.87;;
77248;SDS011;66280;45.124;20.718;2023-01-15T12:37:09;65.93;;;28.53;;
77248;SDS011;66280;45.124;20.718;2023-01-15T12:47:15;32.42;;;18.63;;
77248;SDS011;66280;45.124;20.718;2023-01-15T12:57:22;59.83;;;28.73;;
77248;SDS011;66280;45.124;20.718;2023-01-15T13:07:35;26.40;;;14.18;;
77248;SDS011;66280;45.124;20.718;2023-01-15T13:37:59;20.15;;;11.70;;
77248;SDS011;66280;45.124;20.718;2023-01-15T13:48:11;29.47;;;15.20;;
77248;SDS011;66280;45.124;20.718;2023-01-15T13:58:19;23.38;;;13.63;;
77248;SDS011;66280;45.124;20.718;2023-01-15T14:08:27;27.63;;;15.17;;
77248;SDS011;66280;45.124;20.718;2023-01-15T14:39:00;74.97;;;32.53;;
77248;SDS011;66280;45.124;20.718;2023-01-15T14:49:02;69.05;;;26.92;;
77248;SDS011;66280;45.124;20.718;2023-01-15T14:59:20;42.97;;;19.83;;
77248;SDS011;66280;45.124;20.718;2023-01-15T15:09:28;54.83;;;24.63;;
77248;SDS011;66280;45.124;20.718;2023-01-15T15:19:39;38.75;;;16.58;;
77248;SDS011;66280;45.124;20.718;2023-01-15T15:29:45;39.37;;;19.33;;
77248;SDS011;66280;45.124;20.718;2023-01-15T15:40:12;40.65;;;17.50;;
77248;SDS011;66280;45.124;20.718;2023-01-15T15:50:19;44.20;;;18.07;;
77248;SDS011;66280;45.124;20.718;2023-01-15T16:00:24;33.83;;;16.43;;
77248;SDS011;66280;45.124;20.718;2023-01-15T16:10:38;43.80;;;19.08;;
77248;SDS011;66280;45.124;20.718;2023-01-15T16:20:39;44.27;;;20.40;;
77248;SDS011;66280;45.124;20.718;2023-01-15T16:30:39;34.03;;;16.03;;
77248;SDS011;66280;45.124;20.718;2023-01-15T16:40:42;35.63;;;17.30;;
77248;SDS011;66280;45.124;20.718;2023-01-15T16:50:44;52.37;;;23.80;;
77248;SDS011;66280;45.124;20.718;2023-01-15T17:00:46;32.92;;;15.18;;
77248;SDS011;66280;45.124;20.718;2023-01-15T17:10:58;35.13;;;17.92;;
77248;SDS011;66280;45.124;20.718;2023-01-15T17:21:00;39.03;;;20.40;;
77248;SDS011;66280;45.124;20.718;2023-01-15T17:31:01;27.63;;;12.43;;
77248;SDS011;66280;45.124;20.718;2023-01-15T17:41:02;27.83;;;14.45;;
77248;SDS011;66280;45.124;20.718;2023-01-15T17:51:04;26.07;;;9.33;;
77248;SDS011;66280;45.124;20.718;2023-01-15T18:01:10;27.17;;;12.97;;
77248;SDS011;66280;45.124;20.718;2023-01-15T18:11:17;25.02;;;10.98;;
77248;SDS011;66280;45.124;20.718;2023-01-15T18:21:18;25.27;;;12.90;;
77248;SDS011;66280;45.124;20.718;2023-01-15T18:31:19;18.30;;;10.40;;
77248;SDS011;66280;45.124;20.718;2023-01-15T18:41:20;32.87;;;14.90;;
77248;SDS011;66280;45.124;20.718;2023-01-15T18:51:22;22.98;;;10.15;;
77248;SDS011;66280;45.124;20.718;2023-01-15T19:01:23;30.10;;;13.60;;
77248;SDS011;66280;45.124;20.718;2023-01-15T19:11:23;27.87;;;12.97;;
77248;SDS011;66280;45.124;20.718;2023-01-15T19:21:24;39.17;;;15.30;;
77248;SDS011;66280;45.124;20.718;2023-01-15T19:31:25;16.90;;;8.20;;
77248;SDS011;66280;45.124;20.718;2023-01-15T19:41:25;22.83;;;12.37;;
77248;SDS011;66280;45.124;20.718;2023-01-15T19:51:26;17.83;;;9.30;;
77248;SDS011;66280;45.124;20.718;2023-01-15T20:01:27;14.93;;;7.70;;
77248;SDS011;66280;45.124;20.718;2023-01-15T20:11:28;14.67;;;8.47;;
77248;SDS011;66280;45.124;20.718;2023-01-15T20:21:28;15.67;;;8.30;;
77248;SDS011;66280;45.124;20.718;2023-01-15T20:31:29;23.93;;;12.03;;
77248;SDS011;66280;45.124;20.718;2023-01-15T20:41:30;23.00;;;11.10;;
77248;SDS011;66280;45.124;20.718;2023-01-15T20:51:30;21.37;;;10.87;;
77248;SDS011;66280;45.124;20.718;2023-01-15T21:01:31;15.03;;;8.37;;
77248;SDS011;66280;45.124;20.718;2023-01-15T21:11:32;28.37;;;12.23;;
77248;SDS011;66280;45.124;20.718;2023-01-15T21:21:33;19.37;;;8.90;;
77248;SDS011;66280;45.124;20.718;2023-01-15T21:31:34;26.10;;;12.13;;
77248;SDS011;66280;45.124;20.718;2023-01-15T21:41:34;28.00;;;10.70;;
77248;SDS011;66280;45.124;20.718;2023-01-15T21:51:35;12.93;;;7.50;;
77248;SDS011;66280;45.124;20.718;2023-01-15T22:01:36;22.73;;;10.33;;
77248;SDS011;66280;45.124;20.718;2023-01-15T22:11:36;16.63;;;9.03;;
77248;SDS011;66280;45.124;20.718;2023-01-15T22:21:37;10.00;;;4.93;;
77248;SDS011;66280;45.124;20.718;2023-01-15T22:31:38;19.43;;;9.60;;
77248;SDS011;66280;45.124;20.718;2023-01-15T22:41:39;15.10;;;8.63;;
77248;SDS011;66280;45.124;20.718;2023-01-15T22:51:40;21.67;;;10.10;;
77248;SDS011;66280;45.124;20.718;2023-01-15T23:01:41;13.30;;;8.07;;
77248;SDS011;66280;45.124;20.718;2023-01-15T23:11:42;15.52;;;7.85;;
77248;SDS011;66280;45.124;20.718;2023-01-15T23:21:42;15.37;;;7.83;;
77248;SDS011;66280;45.124;20.718;2023-01-15T23:31:43;12.77;;;6.47;;
77248;SDS011;66280;45.124;20.718;2023-01-15T23:41:44;18.45;;;7.70;;
77248;SDS011;66280;45.124;20.718;2023-01-15T23:51:44;16.65;;;7.32;;
